createdAt,value
2018-10-07T00:00:24.604Z,23.06
2018-10-07T00:00:56.206Z,23.05
2018-10-07T00:01:27.804Z,23.05
2018-10-07T00:01:59.392Z,23.05
2018-10-07T00:02:30.980Z,23.05
2018-10-07T00:03:02.572Z,23.05
2018-10-07T00:03:34.161Z,23.06
2018-10-07T00:04:05.753Z,23.05
2018-10-07T00:04:37.387Z,23.05
2018-10-07T00:05:08.981Z,23.05
2018-10-07T00:05:40.591Z,23.06
2018-10-07T00:06:12.198Z,23.06
2018-10-07T00:06:43.802Z,23.06
2018-10-07T00:07:15.382Z,23.06
2018-10-07T00:07:46.980Z,23.06
2018-10-07T00:08:18.570Z,23.06
2018-10-07T00:08:50.150Z,23.05
2018-10-07T00:09:21.769Z,23.06
2018-10-07T00:09:53.373Z,23.06
2018-10-07T00:10:24.978Z,23.06
2018-10-07T00:10:56.576Z,23.05
2018-10-07T00:11:28.166Z,23.05
2018-10-07T00:11:59.761Z,23.04
2018-10-07T00:12:31.365Z,23.05
2018-10-07T00:13:02.959Z,23.05
2018-10-07T00:13:34.549Z,23.04
2018-10-07T00:14:06.146Z,23.04
2018-10-07T00:14:37.783Z,23.04
2018-10-07T00:15:09.386Z,23.04
2018-10-07T00:15:40.999Z,23.02
2018-10-07T00:16:12.592Z,23.04
2018-10-07T00:16:44.171Z,23.02
2018-10-07T00:17:15.775Z,23.02
2018-10-07T00:17:47.368Z,23.01
2018-10-07T00:18:18.971Z,23.02
2018-10-07T00:18:50.578Z,23.02
2018-10-07T00:19:22.233Z,23.02
2018-10-07T00:19:53.842Z,23.02
2018-10-07T00:20:25.474Z,23.02
2018-10-07T00:20:57.063Z,23.02
2018-10-07T00:21:28.656Z,23.01
2018-10-07T00:22:00.239Z,23.01
2018-10-07T00:22:31.822Z,23.00
2018-10-07T00:23:03.423Z,23.01
2018-10-07T00:23:35.021Z,22.99
2018-10-07T00:24:06.608Z,22.99
2018-10-07T00:24:38.233Z,22.99
2018-10-07T00:25:09.829Z,22.99
2018-10-07T00:25:41.417Z,22.99
2018-10-07T00:26:13.009Z,22.98
2018-10-07T00:26:44.600Z,22.98
2018-10-07T00:27:16.206Z,22.97
2018-10-07T00:27:47.786Z,22.98
2018-10-07T00:28:19.380Z,22.97
2018-10-07T00:28:50.958Z,22.97
2018-10-07T00:29:22.570Z,22.96
2018-10-07T00:29:54.163Z,22.96
2018-10-07T00:30:25.775Z,22.95
2018-10-07T00:30:57.354Z,22.96
2018-10-07T00:31:28.959Z,22.96
2018-10-07T00:32:00.556Z,22.96
2018-10-07T00:32:32.146Z,22.96
2018-10-07T00:33:03.750Z,22.95
2018-10-07T00:33:35.356Z,22.95
2018-10-07T00:34:06.939Z,22.95
2018-10-07T00:34:38.676Z,22.94
2018-10-07T00:35:10.278Z,22.94
2018-10-07T00:35:41.882Z,22.94
2018-10-07T00:36:13.486Z,22.88
2018-10-07T00:36:45.090Z,23.00
2018-10-07T00:37:16.671Z,22.97
2018-10-07T00:37:48.281Z,22.94
2018-10-07T00:38:19.880Z,22.90
2018-10-07T00:38:51.473Z,22.87
2018-10-07T00:39:23.068Z,22.83
2018-10-07T00:39:54.661Z,22.81
2018-10-07T00:40:26.252Z,22.80
2018-10-07T00:40:57.850Z,22.79
2018-10-07T00:41:29.444Z,22.79
2018-10-07T00:42:01.038Z,22.78
2018-10-07T00:42:32.643Z,22.79
2018-10-07T00:43:04.237Z,22.79
2018-10-07T00:43:35.834Z,22.79
2018-10-07T00:44:07.411Z,22.78
2018-10-07T00:44:39.006Z,22.79
2018-10-07T00:45:10.638Z,22.78
2018-10-07T00:45:42.233Z,22.77
2018-10-07T00:46:13.843Z,22.77
2018-10-07T00:46:45.422Z,22.77
2018-10-07T00:47:17.026Z,22.77
2018-10-07T00:47:48.620Z,22.77
2018-10-07T00:48:20.210Z,22.77
2018-10-07T00:48:51.815Z,22.78
2018-10-07T00:49:23.735Z,22.77
2018-10-07T00:49:55.348Z,22.77
2018-10-07T00:50:26.950Z,22.78
2018-10-07T00:50:58.544Z,22.78
2018-10-07T00:51:30.151Z,22.77
2018-10-07T00:52:01.733Z,22.78
2018-10-07T00:52:33.335Z,22.78
2018-10-07T00:53:04.924Z,22.78
2018-10-07T00:53:36.530Z,22.78
2018-10-07T00:54:08.114Z,22.78
2018-10-07T00:54:39.704Z,22.79
2018-10-07T00:55:11.314Z,22.78
2018-10-07T00:55:42.909Z,22.79
2018-10-07T00:56:14.511Z,22.79
2018-10-07T00:56:46.122Z,22.80
2018-10-07T00:57:17.703Z,22.81
2018-10-07T00:57:49.306Z,22.82
2018-10-07T00:58:20.896Z,22.83
2018-10-07T00:58:52.489Z,22.84
2018-10-07T00:59:24.094Z,22.84
2018-10-07T00:59:55.730Z,22.85
2018-10-07T01:00:27.339Z,22.85
2018-10-07T01:00:58.941Z,22.86
2018-10-07T01:01:30.532Z,22.85
2018-10-07T01:02:02.139Z,22.85
2018-10-07T01:02:33.737Z,22.86
2018-10-07T01:03:05.331Z,22.86
2018-10-07T01:03:36.936Z,22.86
2018-10-07T01:04:08.544Z,22.86
2018-10-07T01:04:40.150Z,22.85
2018-10-07T01:05:11.759Z,22.86
2018-10-07T01:05:43.367Z,22.85
2018-10-07T01:06:14.964Z,22.85
2018-10-07T01:06:46.570Z,22.85
2018-10-07T01:07:18.167Z,22.85
2018-10-07T01:07:49.770Z,22.86
2018-10-07T01:08:21.375Z,22.86
2018-10-07T01:08:52.982Z,22.85
2018-10-07T01:09:24.587Z,22.85
2018-10-07T01:09:56.209Z,22.85
2018-10-07T01:10:27.843Z,22.84
2018-10-07T01:10:59.431Z,22.84
2018-10-07T01:11:31.020Z,22.84
2018-10-07T01:12:02.613Z,22.85
2018-10-07T01:12:34.216Z,22.85
2018-10-07T01:13:05.827Z,22.84
2018-10-07T01:13:37.431Z,22.86
2018-10-07T01:14:09.024Z,22.86
2018-10-07T01:14:40.620Z,22.86
2018-10-07T01:15:12.278Z,22.85
2018-10-07T01:15:43.887Z,22.86
2018-10-07T01:16:15.466Z,22.86
2018-10-07T01:16:47.057Z,22.85
2018-10-07T01:17:18.648Z,22.85
2018-10-07T01:17:50.226Z,22.86
2018-10-07T01:18:21.824Z,22.86
2018-10-07T01:18:53.420Z,22.85
2018-10-07T01:19:25.012Z,22.85
2018-10-07T01:19:56.626Z,22.85
2018-10-07T01:20:28.282Z,22.85
2018-10-07T01:20:59.884Z,22.85
2018-10-07T01:21:31.490Z,22.85
2018-10-07T01:22:03.094Z,22.85
2018-10-07T01:22:34.688Z,22.84
2018-10-07T01:23:06.281Z,22.84
2018-10-07T01:23:37.872Z,22.84
2018-10-07T01:24:09.451Z,22.84
2018-10-07T01:24:41.038Z,22.84
2018-10-07T01:25:12.642Z,22.83
2018-10-07T01:25:44.274Z,22.83
2018-10-07T01:26:15.883Z,22.83
2018-10-07T01:26:47.472Z,22.83
2018-10-07T01:27:19.061Z,22.83
2018-10-07T01:27:50.667Z,22.83
2018-10-07T01:28:22.257Z,22.83
2018-10-07T01:28:53.863Z,22.83
2018-10-07T01:29:25.474Z,22.81
2018-10-07T01:29:57.064Z,22.83
2018-10-07T01:30:28.671Z,22.82
2018-10-07T01:31:00.269Z,22.82
2018-10-07T01:31:31.874Z,22.82
2018-10-07T01:32:03.479Z,22.82
2018-10-07T01:32:35.087Z,22.82
2018-10-07T01:33:06.694Z,22.81
2018-10-07T01:33:38.293Z,22.80
2018-10-07T01:34:09.885Z,22.81
2018-10-07T01:34:41.494Z,22.80
2018-10-07T01:35:13.102Z,22.81
2018-10-07T01:35:44.738Z,22.82
2018-10-07T01:36:16.331Z,22.83
2018-10-07T01:36:47.932Z,22.84
2018-10-07T01:37:19.524Z,22.86
2018-10-07T01:37:51.116Z,22.87
2018-10-07T01:38:22.707Z,22.86
2018-10-07T01:38:54.305Z,22.88
2018-10-07T01:39:25.911Z,22.89
2018-10-07T01:39:57.520Z,22.89
2018-10-07T01:40:29.241Z,22.89
2018-10-07T01:41:00.847Z,22.90
2018-10-07T01:41:32.476Z,22.89
2018-10-07T01:42:04.074Z,22.90
2018-10-07T01:42:35.673Z,22.90
2018-10-07T01:43:07.277Z,22.88
2018-10-07T01:43:38.871Z,22.88
2018-10-07T01:44:10.466Z,22.89
2018-10-07T01:44:42.071Z,22.88
2018-10-07T01:45:13.668Z,22.87
2018-10-07T01:45:45.298Z,22.86
2018-10-07T01:46:16.892Z,22.85
2018-10-07T01:46:48.495Z,22.84
2018-10-07T01:47:20.089Z,22.84
2018-10-07T01:47:51.694Z,22.84
2018-10-07T01:48:23.332Z,22.83
2018-10-07T01:48:54.918Z,22.83
2018-10-07T01:49:26.515Z,22.83
2018-10-07T01:49:58.108Z,22.82
2018-10-07T01:50:29.712Z,22.82
2018-10-07T01:51:01.333Z,22.82
2018-10-07T01:51:32.924Z,22.71
2018-10-07T01:52:04.521Z,22.82
2018-10-07T01:52:36.113Z,22.81
2018-10-07T01:53:07.700Z,22.81
2018-10-07T01:53:39.306Z,22.80
2018-10-07T01:54:10.910Z,22.81
2018-10-07T01:54:42.523Z,22.81
2018-10-07T01:55:14.115Z,22.82
2018-10-07T01:55:45.747Z,22.83
2018-10-07T01:56:17.351Z,22.83
2018-10-07T01:56:48.944Z,22.84
2018-10-07T01:57:20.532Z,22.85
2018-10-07T01:57:52.122Z,22.85
2018-10-07T01:58:23.730Z,22.86
2018-10-07T01:58:55.315Z,22.86
2018-10-07T01:59:27.009Z,22.87
2018-10-07T01:59:58.513Z,22.86
2018-10-07T02:00:30.108Z,22.87
2018-10-07T02:01:01.729Z,22.88
2018-10-07T02:01:33.316Z,22.88
2018-10-07T02:02:04.904Z,22.87
2018-10-07T02:02:36.509Z,22.88
2018-10-07T02:03:08.114Z,22.88
2018-10-07T02:03:39.708Z,22.88
2018-10-07T02:04:11.304Z,22.88
2018-10-07T02:04:42.906Z,22.88
2018-10-07T02:05:14.624Z,22.87
2018-10-07T02:05:46.135Z,22.87
2018-10-07T02:06:17.753Z,22.86
2018-10-07T02:06:49.360Z,22.87
2018-10-07T02:07:20.967Z,22.87
2018-10-07T02:07:52.564Z,22.87
2018-10-07T02:08:24.167Z,22.86
2018-10-07T02:08:55.764Z,22.86
2018-10-07T02:09:27.356Z,22.85
2018-10-07T02:09:58.939Z,22.85
2018-10-07T02:10:30.543Z,22.84
2018-10-07T02:11:02.151Z,22.83
2018-10-07T02:11:33.758Z,22.84
2018-10-07T02:12:05.363Z,22.84
2018-10-07T02:12:36.961Z,22.85
2018-10-07T02:13:08.568Z,22.84
2018-10-07T02:13:40.161Z,22.86
2018-10-07T02:14:11.748Z,22.85
2018-10-07T02:14:43.335Z,22.84
2018-10-07T02:15:14.928Z,22.84
2018-10-07T02:15:46.535Z,22.85
2018-10-07T02:16:18.156Z,22.85
2018-10-07T02:16:49.750Z,22.85
2018-10-07T02:17:21.345Z,22.86
2018-10-07T02:17:52.959Z,22.86
2018-10-07T02:18:24.548Z,22.84
2018-10-07T02:18:56.141Z,22.84
2018-10-07T02:19:27.736Z,22.84
2018-10-07T02:19:59.343Z,22.84
2018-10-07T02:20:30.923Z,22.84
2018-10-07T02:21:02.548Z,22.85
2018-10-07T02:21:34.126Z,22.85
2018-10-07T02:22:05.726Z,22.84
2018-10-07T02:22:37.317Z,22.84
2018-10-07T02:23:08.898Z,22.84
2018-10-07T02:23:40.493Z,22.86
2018-10-07T02:24:12.099Z,22.86
2018-10-07T02:24:43.703Z,22.86
2018-10-07T02:25:15.304Z,22.87
2018-10-07T02:25:46.883Z,22.86
2018-10-07T02:26:18.501Z,22.86
2018-10-07T02:26:50.106Z,22.85
2018-10-07T02:27:21.710Z,22.85
2018-10-07T02:27:53.304Z,22.85
2018-10-07T02:28:24.906Z,22.85
2018-10-07T02:28:56.486Z,22.86
2018-10-07T02:29:28.080Z,22.85
2018-10-07T02:29:59.682Z,22.84
2018-10-07T02:30:31.279Z,22.86
2018-10-07T02:31:02.915Z,22.85
2018-10-07T02:31:34.516Z,22.85
2018-10-07T02:32:06.131Z,22.85
2018-10-07T02:32:41.397Z,22.84
2018-10-07T02:33:13.016Z,22.85
2018-10-07T02:33:44.608Z,22.85
2018-10-07T02:34:16.216Z,22.85
2018-10-07T02:34:47.826Z,22.84
2018-10-07T02:35:19.422Z,22.86
2018-10-07T02:35:51.020Z,22.85
2018-10-07T02:36:22.630Z,22.85
2018-10-07T02:36:54.241Z,22.86
2018-10-07T02:37:25.829Z,22.86
2018-10-07T02:37:57.438Z,22.85
2018-10-07T02:38:29.040Z,22.85
2018-10-07T02:39:00.639Z,22.85
2018-10-07T02:39:32.232Z,22.86
2018-10-07T02:40:03.834Z,22.86
2018-10-07T02:40:35.443Z,22.85
2018-10-07T02:41:07.078Z,22.84
2018-10-07T02:41:38.683Z,22.84
2018-10-07T02:42:10.290Z,22.84
2018-10-07T02:42:41.898Z,22.83
2018-10-07T02:43:13.489Z,22.84
2018-10-07T02:43:45.099Z,22.84
2018-10-07T02:44:16.707Z,22.82
2018-10-07T02:44:48.312Z,22.82
2018-10-07T02:45:19.909Z,22.82
2018-10-07T02:45:51.505Z,22.81
2018-10-07T02:46:23.110Z,22.81
2018-10-07T02:46:54.700Z,22.79
2018-10-07T02:47:26.278Z,22.81
2018-10-07T02:47:57.874Z,22.81
2018-10-07T02:48:29.462Z,22.81
2018-10-07T02:49:01.057Z,22.81
2018-10-07T02:49:32.662Z,22.81
2018-10-07T02:50:04.253Z,22.81
2018-10-07T02:50:35.857Z,22.82
2018-10-07T02:51:07.485Z,22.82
2018-10-07T02:51:39.118Z,22.83
2018-10-07T02:52:10.699Z,22.83
2018-10-07T02:52:42.297Z,22.83
2018-10-07T02:53:13.969Z,22.83
2018-10-07T02:53:45.515Z,22.84
2018-10-07T02:54:17.099Z,22.85
2018-10-07T02:54:48.704Z,22.86
2018-10-07T02:55:20.307Z,22.87
2018-10-07T02:55:51.905Z,22.88
2018-10-07T02:56:23.533Z,22.90
2018-10-07T02:56:55.139Z,22.91
2018-10-07T02:57:26.732Z,22.93
2018-10-07T02:57:58.324Z,22.93
2018-10-07T02:58:29.936Z,22.94
2018-10-07T02:59:01.543Z,22.95
2018-10-07T02:59:33.154Z,22.95
2018-10-07T03:00:04.756Z,22.95
2018-10-07T03:00:36.362Z,22.95
2018-10-07T03:01:07.966Z,22.95
2018-10-07T03:01:39.598Z,22.96
2018-10-07T03:02:11.192Z,22.95
2018-10-07T03:02:42.784Z,22.94
2018-10-07T03:03:14.387Z,22.94
2018-10-07T03:03:45.980Z,22.93
2018-10-07T03:04:17.573Z,22.92
2018-10-07T03:04:49.247Z,22.93
2018-10-07T03:05:20.822Z,22.92
2018-10-07T03:05:52.438Z,22.92
2018-10-07T03:06:24.047Z,22.91
2018-10-07T03:06:55.628Z,22.91
2018-10-07T03:07:27.225Z,22.90
2018-10-07T03:07:58.834Z,22.91
2018-10-07T03:08:30.439Z,22.90
2018-10-07T03:09:02.051Z,22.90
2018-10-07T03:09:33.644Z,22.87
2018-10-07T03:10:05.247Z,22.86
2018-10-07T03:10:36.851Z,22.83
2018-10-07T03:11:08.459Z,22.83
2018-10-07T03:11:40.093Z,22.82
2018-10-07T03:12:11.685Z,22.83
2018-10-07T03:12:43.272Z,22.82
2018-10-07T03:13:14.874Z,22.82
2018-10-07T03:13:46.459Z,22.81
2018-10-07T03:14:18.062Z,22.80
2018-10-07T03:14:49.670Z,22.81
2018-10-07T03:15:21.282Z,22.82
2018-10-07T03:15:52.877Z,22.82
2018-10-07T03:16:24.500Z,22.83
2018-10-07T03:16:56.079Z,22.83
2018-10-07T03:17:27.682Z,22.84
2018-10-07T03:17:59.272Z,22.82
2018-10-07T03:18:30.880Z,22.83
2018-10-07T03:19:02.485Z,22.83
2018-10-07T03:19:34.084Z,22.83
2018-10-07T03:20:05.663Z,22.83
2018-10-07T03:20:37.266Z,22.83
2018-10-07T03:21:08.860Z,22.84
2018-10-07T03:21:40.496Z,22.84
2018-10-07T03:22:12.099Z,22.84
2018-10-07T03:22:43.689Z,22.85
2018-10-07T03:23:15.295Z,22.85
2018-10-07T03:23:46.915Z,22.85
2018-10-07T03:24:18.508Z,22.85
2018-10-07T03:24:50.104Z,22.85
2018-10-07T03:25:21.696Z,22.85
2018-10-07T03:25:53.278Z,22.85
2018-10-07T03:26:24.854Z,22.86
2018-10-07T03:26:56.476Z,22.88
2018-10-07T03:27:28.083Z,22.87
2018-10-07T03:27:59.672Z,22.86
2018-10-07T03:28:31.272Z,22.83
2018-10-07T03:29:02.878Z,22.82
2018-10-07T03:29:34.518Z,22.81
2018-10-07T03:30:06.082Z,22.79
2018-10-07T03:30:37.684Z,22.78
2018-10-07T03:31:09.277Z,22.76
2018-10-07T03:31:40.901Z,22.74
2018-10-07T03:32:12.500Z,22.71
2018-10-07T03:32:44.118Z,22.71
2018-10-07T03:33:15.706Z,22.70
2018-10-07T03:33:47.311Z,22.70
2018-10-07T03:34:18.923Z,22.69
2018-10-07T03:34:50.512Z,22.69
2018-10-07T03:35:22.113Z,22.68
2018-10-07T03:35:53.719Z,22.67
2018-10-07T03:36:25.327Z,22.67
2018-10-07T03:36:56.958Z,22.67
2018-10-07T03:37:28.549Z,22.66
2018-10-07T03:38:00.154Z,22.66
2018-10-07T03:38:31.760Z,22.66
2018-10-07T03:39:03.352Z,22.66
2018-10-07T03:39:34.955Z,22.66
2018-10-07T03:40:06.552Z,22.66
2018-10-07T03:40:38.149Z,22.66
2018-10-07T03:41:09.758Z,22.65
2018-10-07T03:41:41.340Z,22.65
2018-10-07T03:42:12.974Z,22.64
2018-10-07T03:42:44.572Z,22.65
2018-10-07T03:43:16.174Z,22.65
2018-10-07T03:43:47.768Z,22.65
2018-10-07T03:44:19.388Z,22.63
2018-10-07T03:44:50.984Z,22.64
2018-10-07T03:45:22.592Z,22.65
2018-10-07T03:45:54.184Z,22.65
2018-10-07T03:46:25.787Z,22.67
2018-10-07T03:46:57.394Z,22.68
2018-10-07T03:47:28.991Z,22.69
2018-10-07T03:48:00.598Z,22.69
2018-10-07T03:48:32.192Z,22.69
2018-10-07T03:49:03.799Z,22.69
2018-10-07T03:49:35.392Z,22.70
2018-10-07T03:50:06.988Z,22.71
2018-10-07T03:50:38.590Z,22.74
2018-10-07T03:51:10.194Z,22.77
2018-10-07T03:51:41.800Z,22.78
2018-10-07T03:52:13.434Z,22.79
2018-10-07T03:52:45.024Z,22.81
2018-10-07T03:53:16.618Z,22.82
2018-10-07T03:53:48.222Z,22.83
2018-10-07T03:54:19.830Z,22.84
2018-10-07T03:54:51.434Z,22.85
2018-10-07T03:55:23.041Z,22.84
2018-10-07T03:55:54.626Z,22.85
2018-10-07T03:56:26.234Z,22.85
2018-10-07T03:56:57.852Z,22.84
2018-10-07T03:57:29.455Z,22.84
2018-10-07T03:58:01.053Z,22.85
2018-10-07T03:58:32.653Z,22.85
2018-10-07T03:59:04.252Z,22.85
2018-10-07T03:59:35.845Z,22.84
2018-10-07T04:00:07.445Z,22.85
2018-10-07T04:00:39.058Z,22.84
2018-10-07T04:01:10.654Z,22.87
2018-10-07T04:01:42.244Z,22.88
2018-10-07T04:02:13.865Z,22.88
2018-10-07T04:02:45.452Z,22.87
2018-10-07T04:03:17.058Z,22.87
2018-10-07T04:03:48.648Z,22.86
2018-10-07T04:04:20.230Z,22.87
2018-10-07T04:04:51.842Z,22.88
2018-10-07T04:05:23.437Z,22.89
2018-10-07T04:05:55.042Z,22.89
2018-10-07T04:06:26.633Z,22.89
2018-10-07T04:06:58.229Z,22.90
2018-10-07T04:07:29.863Z,22.90
2018-10-07T04:08:01.463Z,22.91
2018-10-07T04:08:33.070Z,22.91
2018-10-07T04:09:04.658Z,22.89
2018-10-07T04:09:36.248Z,22.89
2018-10-07T04:10:07.851Z,22.90
2018-10-07T04:10:39.446Z,22.89
2018-10-07T04:11:11.069Z,22.89
2018-10-07T04:11:42.651Z,22.88
2018-10-07T04:12:14.285Z,22.88
2018-10-07T04:12:45.889Z,22.85
2018-10-07T04:13:17.494Z,22.86
2018-10-07T04:13:49.095Z,22.85
2018-10-07T04:14:20.684Z,22.85
2018-10-07T04:14:52.291Z,22.84
2018-10-07T04:15:23.888Z,22.84
2018-10-07T04:15:55.480Z,22.82
2018-10-07T04:16:27.080Z,22.83
2018-10-07T04:16:58.658Z,22.82
2018-10-07T04:17:30.281Z,22.82
2018-10-07T04:18:01.862Z,22.82
2018-10-07T04:18:33.453Z,22.82
2018-10-07T04:19:05.035Z,22.82
2018-10-07T04:19:36.629Z,22.81
2018-10-07T04:20:08.238Z,22.80
2018-10-07T04:20:39.828Z,22.80
2018-10-07T04:21:11.434Z,22.80
2018-10-07T04:21:43.028Z,22.80
2018-10-07T04:22:14.668Z,22.79
2018-10-07T04:22:46.279Z,22.79
2018-10-07T04:23:17.890Z,22.79
2018-10-07T04:23:49.485Z,22.79
2018-10-07T04:24:21.076Z,22.79
2018-10-07T04:24:52.678Z,22.79
2018-10-07T04:25:24.287Z,22.79
2018-10-07T04:25:55.877Z,22.77
2018-10-07T04:26:27.476Z,22.79
2018-10-07T04:26:59.091Z,22.79
2018-10-07T04:27:30.723Z,22.77
2018-10-07T04:28:02.313Z,22.78
2018-10-07T04:28:33.909Z,22.78
2018-10-07T04:29:05.518Z,22.79
2018-10-07T04:29:37.120Z,22.78
2018-10-07T04:30:08.717Z,22.79
2018-10-07T04:30:40.308Z,22.79
2018-10-07T04:31:11.913Z,22.78
2018-10-07T04:31:43.505Z,22.78
2018-10-07T04:32:15.107Z,22.78
2018-10-07T04:32:46.705Z,22.77
2018-10-07T04:33:18.402Z,22.77
2018-10-07T04:33:49.997Z,22.78
2018-10-07T04:34:21.578Z,22.78
2018-10-07T04:34:53.182Z,22.77
2018-10-07T04:35:24.759Z,22.77
2018-10-07T04:35:56.338Z,22.77
2018-10-07T04:36:27.942Z,22.77
2018-10-07T04:36:59.546Z,22.76
2018-10-07T04:37:31.180Z,22.76
2018-10-07T04:38:02.791Z,22.76
2018-10-07T04:38:34.377Z,22.74
2018-10-07T04:39:05.982Z,22.76
2018-10-07T04:39:37.587Z,22.74
2018-10-07T04:40:09.188Z,22.74
2018-10-07T04:40:40.780Z,22.73
2018-10-07T04:41:12.382Z,22.73
2018-10-07T04:41:43.981Z,22.73
2018-10-07T04:42:15.572Z,22.74
2018-10-07T04:42:47.160Z,22.74
2018-10-07T04:43:18.756Z,22.75
2018-10-07T04:43:50.344Z,22.73
2018-10-07T04:44:21.981Z,22.73
2018-10-07T04:44:53.569Z,22.72
2018-10-07T04:45:25.164Z,22.72
2018-10-07T04:45:56.756Z,22.70
2018-10-07T04:46:28.477Z,22.70
2018-10-07T04:47:00.014Z,22.71
2018-10-07T04:47:31.616Z,22.71
2018-10-07T04:48:03.233Z,22.70
2018-10-07T04:48:34.839Z,22.71
2018-10-07T04:49:06.446Z,22.70
2018-10-07T04:49:38.027Z,22.71
2018-10-07T04:50:09.634Z,22.74
2018-10-07T04:50:41.243Z,22.75
2018-10-07T04:51:12.836Z,22.73
2018-10-07T04:51:44.445Z,22.71
2018-10-07T04:52:16.041Z,22.70
2018-10-07T04:52:47.642Z,22.67
2018-10-07T04:53:19.250Z,22.66
2018-10-07T04:53:50.850Z,22.69
2018-10-07T04:54:22.440Z,22.68
2018-10-07T04:54:54.043Z,22.68
2018-10-07T04:55:25.636Z,22.67
2018-10-07T04:55:57.242Z,22.67
2018-10-07T04:56:28.836Z,22.66
2018-10-07T04:57:00.427Z,22.66
2018-10-07T04:57:32.020Z,22.66
2018-10-07T04:58:03.636Z,22.65
2018-10-07T04:58:35.242Z,22.64
2018-10-07T04:59:06.825Z,22.63
2018-10-07T04:59:38.424Z,22.63
2018-10-07T05:00:10.035Z,22.61
2018-10-07T05:00:41.646Z,22.62
2018-10-07T05:01:13.240Z,22.61
2018-10-07T05:01:44.832Z,22.61
2018-10-07T05:02:16.421Z,22.61
2018-10-07T05:02:47.998Z,22.61
2018-10-07T05:03:19.626Z,22.61
2018-10-07T05:03:51.221Z,22.61
2018-10-07T05:04:22.827Z,22.62
2018-10-07T05:04:54.436Z,22.63
2018-10-07T05:05:26.028Z,22.62
2018-10-07T05:05:57.621Z,22.63
2018-10-07T05:06:29.227Z,22.63
2018-10-07T05:07:00.825Z,22.63
2018-10-07T05:07:32.448Z,22.64
2018-10-07T05:08:04.072Z,22.62
2018-10-07T05:08:35.665Z,22.63
2018-10-07T05:09:07.256Z,22.66
2018-10-07T05:09:38.858Z,22.66
2018-10-07T05:10:10.453Z,22.66
2018-10-07T05:10:42.031Z,22.66
2018-10-07T05:11:13.625Z,22.66
2018-10-07T05:11:45.243Z,22.67
2018-10-07T05:12:17.001Z,22.66
2018-10-07T05:12:48.495Z,22.68
2018-10-07T05:13:20.133Z,22.68
2018-10-07T05:13:51.728Z,22.69
2018-10-07T05:14:23.321Z,22.68
2018-10-07T05:14:55.539Z,22.69
2018-10-07T05:15:27.142Z,22.69
2018-10-07T05:15:58.771Z,22.69
2018-10-07T05:16:30.365Z,22.68
2018-10-07T05:17:01.971Z,22.68
2018-10-07T05:17:33.579Z,22.69
2018-10-07T05:18:05.227Z,22.69
2018-10-07T05:18:36.843Z,22.68
2018-10-07T05:19:08.444Z,22.68
2018-10-07T05:19:40.033Z,22.68
2018-10-07T05:20:11.620Z,22.68
2018-10-07T05:20:43.217Z,22.68
2018-10-07T05:21:14.805Z,22.69
2018-10-07T05:21:46.427Z,22.69
2018-10-07T05:22:18.007Z,22.69
2018-10-07T05:22:49.582Z,22.67
2018-10-07T05:23:21.204Z,22.68
2018-10-07T05:23:52.800Z,22.70
2018-10-07T05:24:24.394Z,22.71
2018-10-07T05:24:56.010Z,22.73
2018-10-07T05:25:27.605Z,22.72
2018-10-07T05:25:59.196Z,22.71
2018-10-07T05:26:30.796Z,22.73
2018-10-07T05:27:02.413Z,22.74
2018-10-07T05:27:33.990Z,22.72
2018-10-07T05:28:05.581Z,22.74
2018-10-07T05:28:37.216Z,22.73
2018-10-07T05:29:08.818Z,22.74
2018-10-07T05:29:40.430Z,22.75
2018-10-07T05:30:12.024Z,22.74
2018-10-07T05:30:43.620Z,22.75
2018-10-07T05:31:15.202Z,22.76
2018-10-07T05:31:46.785Z,22.77
2018-10-07T05:32:18.381Z,22.77
2018-10-07T05:32:49.972Z,22.76
2018-10-07T05:33:21.688Z,22.76
2018-10-07T05:33:53.242Z,22.74
2018-10-07T05:34:24.832Z,22.76
2018-10-07T05:34:56.410Z,22.77
2018-10-07T05:35:28.014Z,22.77
2018-10-07T05:35:59.618Z,22.77
2018-10-07T05:36:31.209Z,22.76
2018-10-07T05:37:02.800Z,22.76
2018-10-07T05:37:34.395Z,22.66
2018-10-07T05:38:05.999Z,22.77
2018-10-07T05:38:37.616Z,22.76
2018-10-07T05:39:09.223Z,22.76
2018-10-07T05:39:40.830Z,22.75
2018-10-07T05:40:12.442Z,22.76
2018-10-07T05:40:44.028Z,22.76
2018-10-07T05:41:15.635Z,22.76
2018-10-07T05:41:47.236Z,22.77
2018-10-07T05:42:18.825Z,22.78
2018-10-07T05:42:50.426Z,22.80
2018-10-07T05:43:22.031Z,22.72
2018-10-07T05:43:53.652Z,22.81
2018-10-07T05:44:25.375Z,22.81
2018-10-07T05:44:56.892Z,22.82
2018-10-07T05:45:28.499Z,22.82
2018-10-07T05:46:00.093Z,22.82
2018-10-07T05:46:31.742Z,22.81
2018-10-07T05:47:03.299Z,22.82
2018-10-07T05:47:34.892Z,22.82
2018-10-07T05:48:06.484Z,22.81
2018-10-07T05:48:38.112Z,22.81
2018-10-07T05:49:09.700Z,22.82
2018-10-07T05:49:41.280Z,22.81
2018-10-07T05:50:12.876Z,22.81
2018-10-07T05:50:44.478Z,22.81
2018-10-07T05:51:16.072Z,22.81
2018-10-07T05:51:47.653Z,22.79
2018-10-07T05:52:19.235Z,22.79
2018-10-07T05:52:50.824Z,22.78
2018-10-07T05:53:22.416Z,22.78
2018-10-07T05:53:54.036Z,22.78
2018-10-07T05:54:25.632Z,22.77
2018-10-07T05:54:57.225Z,22.78
2018-10-07T05:55:28.817Z,22.77
2018-10-07T05:56:00.426Z,22.77
2018-10-07T05:56:32.030Z,22.77
2018-10-07T05:57:03.644Z,22.77
2018-10-07T05:57:35.302Z,22.77
2018-10-07T05:58:06.910Z,22.76
2018-10-07T05:58:38.884Z,22.75
2018-10-07T05:59:10.490Z,22.78
2018-10-07T05:59:42.084Z,22.78
2018-10-07T06:00:13.663Z,22.79
2018-10-07T06:00:45.246Z,22.78
2018-10-07T06:01:16.841Z,22.77
2018-10-07T06:01:48.530Z,22.78
2018-10-07T06:02:20.143Z,22.77
2018-10-07T06:02:51.717Z,22.77
2018-10-07T06:03:23.317Z,22.77
2018-10-07T06:03:54.950Z,22.78
2018-10-07T06:04:26.531Z,22.78
2018-10-07T06:04:58.108Z,22.79
2018-10-07T06:05:29.697Z,22.77
2018-10-07T06:06:01.296Z,22.77
2018-10-07T06:06:32.885Z,22.76
2018-10-07T06:07:04.481Z,22.76
2018-10-07T06:07:36.076Z,22.77
2018-10-07T06:08:07.672Z,22.76
2018-10-07T06:08:39.288Z,22.76
2018-10-07T06:09:10.919Z,22.75
2018-10-07T06:09:42.512Z,22.74
2018-10-07T06:10:14.104Z,22.74
2018-10-07T06:10:45.696Z,22.73
2018-10-07T06:11:17.292Z,22.73
2018-10-07T06:11:48.882Z,22.72
2018-10-07T06:12:20.487Z,22.72
2018-10-07T06:12:52.079Z,22.72
2018-10-07T06:13:23.674Z,22.72
2018-10-07T06:13:55.590Z,22.71
2018-10-07T06:14:27.184Z,22.70
2018-10-07T06:14:58.868Z,22.70
2018-10-07T06:15:30.434Z,22.70
2018-10-07T06:16:02.028Z,22.70
2018-10-07T06:16:33.616Z,22.69
2018-10-07T06:17:05.207Z,22.68
2018-10-07T06:17:36.810Z,22.68
2018-10-07T06:18:08.414Z,22.67
2018-10-07T06:18:40.009Z,22.67
2018-10-07T06:19:11.633Z,22.67
2018-10-07T06:19:43.224Z,22.67
2018-10-07T06:20:14.873Z,22.66
2018-10-07T06:20:46.469Z,22.66
2018-10-07T06:21:18.076Z,22.65
2018-10-07T06:21:49.674Z,22.64
2018-10-07T06:22:21.273Z,22.65
2018-10-07T06:22:53.179Z,22.65
2018-10-07T06:23:24.781Z,22.66
2018-10-07T06:23:56.406Z,22.67
2018-10-07T06:24:28.028Z,22.68
2018-10-07T06:24:59.634Z,22.68
2018-10-07T06:25:31.236Z,22.68
2018-10-07T06:26:02.833Z,22.69
2018-10-07T06:26:34.439Z,22.69
2018-10-07T06:27:06.055Z,22.68
2018-10-07T06:27:37.634Z,22.67
2018-10-07T06:28:09.228Z,22.68
2018-10-07T06:28:40.835Z,22.67
2018-10-07T06:29:12.419Z,22.66
2018-10-07T06:29:44.017Z,22.66
2018-10-07T06:30:15.608Z,22.66
2018-10-07T06:30:47.204Z,22.65
2018-10-07T06:31:18.801Z,22.65
2018-10-07T06:31:50.406Z,22.64
2018-10-07T06:32:21.997Z,22.63
2018-10-07T06:32:53.603Z,22.63
2018-10-07T06:33:25.201Z,22.64
2018-10-07T06:33:56.806Z,22.65
2018-10-07T06:34:28.787Z,22.66
2018-10-07T06:35:00.403Z,22.66
2018-10-07T06:35:32.008Z,22.67
2018-10-07T06:36:03.593Z,22.66
2018-10-07T06:36:35.180Z,22.67
2018-10-07T06:37:06.790Z,22.67
2018-10-07T06:37:38.389Z,22.67
2018-10-07T06:38:09.976Z,22.67
2018-10-07T06:38:41.586Z,22.68
2018-10-07T06:39:13.205Z,22.66
2018-10-07T06:39:44.828Z,22.67
2018-10-07T06:40:16.445Z,22.72
2018-10-07T06:40:48.036Z,22.75
2018-10-07T06:41:19.788Z,22.73
2018-10-07T06:41:51.349Z,22.71
2018-10-07T06:42:22.940Z,22.69
2018-10-07T06:42:54.542Z,22.66
2018-10-07T06:43:26.126Z,22.63
2018-10-07T06:43:57.717Z,22.62
2018-10-07T06:44:29.343Z,22.63
2018-10-07T06:45:00.974Z,22.64
2018-10-07T06:45:32.617Z,22.65
2018-10-07T06:46:04.195Z,22.59
2018-10-07T06:46:35.799Z,22.73
2018-10-07T06:47:07.379Z,22.78